createdAt,value
2022-09-06T00:00:59.793Z,-57
2022-09-06T00:03:28.235Z,-57
2022-09-06T00:05:55.271Z,-57
2022-09-06T00:08:21.944Z,-58
2022-09-06T00:10:48.512Z,-58
2022-09-06T00:13:15.125Z,-57
2022-09-06T00:15:41.839Z,-57
2022-09-06T00:18:08.822Z,-59
2022-09-06T00:20:38.938Z,-57
2022-09-06T00:23:06.066Z,-58
2022-09-06T00:25:33.477Z,-58
2022-09-06T00:28:02.444Z,-58
2022-09-06T00:30:29.978Z,-58
2022-09-06T00:32:57.199Z,-57
2022-09-06T00:35:25.801Z,-57
2022-09-06T00:37:56.680Z,-57
2022-09-06T00:40:23.327Z,-57
2022-09-06T00:42:49.911Z,-58
2022-09-06T00:45:16.543Z,-56
2022-09-06T00:47:44.901Z,-57
2022-09-06T00:50:14.512Z,-56
2022-09-06T00:52:43.111Z,-57
2022-09-06T00:55:10.324Z,-56
2022-09-06T00:57:37.154Z,-57
2022-09-06T01:00:08.693Z,-58
2022-09-06T01:02:36.339Z,-57
2022-09-06T01:05:05.085Z,-57
2022-09-06T01:07:40.726Z,-58
2022-09-06T01:10:19.640Z,-58
2022-09-06T01:12:46.174Z,-58
2022-09-06T01:15:47.704Z,-57
2022-09-06T01:18:44.493Z,-57
2022-09-06T01:22:02.014Z,-57
2022-09-06T01:24:37.459Z,-59
2022-09-06T01:27:37.763Z,-60
2022-09-06T01:30:10.197Z,-58
2022-09-06T01:32:55.106Z,-58
2022-09-06T01:35:36.911Z,-58
2022-09-06T01:38:05.720Z,-58
2022-09-06T01:40:36.484Z,-56
2022-09-06T01:43:11.160Z,-57
2022-09-06T01:45:49.847Z,-57
2022-09-06T01:48:40.113Z,-56
2022-09-06T01:51:25.886Z,-57
2022-09-06T01:54:23.612Z,-58
2022-09-06T01:57:12.188Z,-56
2022-09-06T02:00:11.106Z,-57
2022-09-06T02:03:03.003Z,-57
2022-09-06T02:05:35.006Z,-56
2022-09-06T02:08:10.891Z,-56
2022-09-06T02:10:44.397Z,-56
2022-09-06T02:13:15.351Z,-58
2022-09-06T02:15:52.227Z,-56
2022-09-06T02:18:26.838Z,-57
2022-09-06T02:20:56.940Z,-57
2022-09-06T02:23:28.740Z,-56
2022-09-06T02:26:05.491Z,-56
2022-09-06T02:28:32.076Z,-57
2022-09-06T02:31:04.217Z,-57
2022-09-06T02:33:33.426Z,-57
2022-09-06T02:36:06.934Z,-58
2022-09-06T02:38:37.066Z,-56
2022-09-06T02:41:05.649Z,-57
2022-09-06T02:43:32.618Z,-57
2022-09-06T02:45:59.260Z,-57
2022-09-06T02:48:26.031Z,-56
2022-09-06T02:50:52.654Z,-56
2022-09-06T02:53:19.350Z,-58
2022-09-06T02:55:47.686Z,-56
2022-09-06T02:58:15.357Z,-57
2022-09-06T03:00:42.301Z,-58
2022-09-06T03:03:08.891Z,-57
2022-09-06T03:05:35.860Z,-57
2022-09-06T03:08:02.645Z,-57
2022-09-06T03:10:29.525Z,-56
2022-09-06T03:12:56.182Z,-58
2022-09-06T03:15:22.796Z,-58
2022-09-06T03:17:49.469Z,-56
2022-09-06T03:20:16.078Z,-56
2022-09-06T03:22:42.663Z,-57
2022-09-06T03:25:10.586Z,-57
2022-09-06T03:27:37.179Z,-58
2022-09-06T03:30:05.951Z,-57
2022-09-06T03:32:32.638Z,-58
2022-09-06T03:34:59.670Z,-57
2022-09-06T03:37:26.347Z,-57
2022-09-06T03:39:53.456Z,-58
2022-09-06T03:42:20.474Z,-58
2022-09-06T03:44:47.095Z,-57
2022-09-06T03:47:17.532Z,-56
2022-09-06T03:49:46.804Z,-58
2022-09-06T03:52:13.950Z,-56
2022-09-06T03:54:40.851Z,-57
2022-09-06T03:57:07.390Z,-56
2022-09-06T03:59:34.004Z,-56
2022-09-06T04:02:00.615Z,-56
2022-09-06T04:04:27.259Z,-58
2022-09-06T04:06:53.797Z,-57
2022-09-06T04:09:20.453Z,-57
2022-09-06T04:11:46.985Z,-56
2022-09-06T04:14:13.573Z,-58
2022-09-06T04:16:40.223Z,-59
2022-09-06T04:19:06.976Z,-57
2022-09-06T04:21:33.742Z,-55
2022-09-06T04:24:00.311Z,-57
2022-09-06T04:26:27.192Z,-57
2022-09-06T04:28:53.802Z,-56
2022-09-06T04:31:20.400Z,-56
2022-09-06T04:33:47.084Z,-57
2022-09-06T04:36:13.804Z,-57
2022-09-06T04:38:42.786Z,-58
2022-09-06T04:41:11.467Z,-57
2022-09-06T04:43:38.155Z,-56
2022-09-06T04:46:25.030Z,-56
2022-09-06T04:48:53.163Z,-58
2022-09-06T04:51:20.171Z,-58
2022-09-06T04:53:47.220Z,-57
2022-09-06T04:56:16.850Z,-57
2022-09-06T04:58:44.424Z,-57
2022-09-06T05:01:11.294Z,-57
2022-09-06T05:03:38.041Z,-57
2022-09-06T05:06:24.461Z,-59
2022-09-06T05:08:51.715Z,-59
2022-09-06T05:11:18.755Z,-57
2022-09-06T05:13:46.037Z,-59
2022-09-06T05:16:12.849Z,-57
2022-09-06T05:18:39.498Z,-58
2022-09-06T05:21:06.277Z,-58
2022-09-06T05:23:33.101Z,-58
2022-09-06T05:25:59.643Z,-59
2022-09-06T05:28:26.324Z,-58
2022-09-06T05:30:53.040Z,-57
2022-09-06T05:33:22.074Z,-59
2022-09-06T05:35:49.623Z,-58
2022-09-06T05:38:16.556Z,-58
2022-09-06T05:40:43.459Z,-58
2022-09-06T05:43:10.141Z,-57
2022-09-06T05:45:36.867Z,-58
2022-09-06T05:48:03.731Z,-58
2022-09-06T05:50:30.313Z,-58
2022-09-06T05:52:56.880Z,-58
2022-09-06T05:55:23.500Z,-58
2022-09-06T05:57:50.097Z,-57
2022-09-06T06:00:16.843Z,-58
2022-09-06T06:02:43.970Z,-57
2022-09-06T06:05:10.618Z,-55
2022-09-06T06:07:37.205Z,-57
2022-09-06T06:10:04.491Z,-57
2022-09-06T06:12:31.052Z,-57
2022-09-06T06:14:57.636Z,-57
2022-09-06T06:17:24.277Z,-57
2022-09-06T06:19:51.194Z,-57
2022-09-06T06:22:17.801Z,-57
2022-09-06T06:24:44.345Z,-59
2022-09-06T06:27:10.923Z,-58
2022-09-06T06:29:37.510Z,-57
2022-09-06T06:32:04.163Z,-57
2022-09-06T06:34:31.195Z,-57
2022-09-06T06:36:58.236Z,-58
2022-09-06T06:39:24.934Z,-58
2022-09-06T06:41:51.570Z,-57
2022-09-06T06:44:18.233Z,-57
2022-09-06T06:46:45.074Z,-57
2022-09-06T06:49:11.631Z,-59
2022-09-06T06:51:38.284Z,-59
2022-09-06T06:54:05.878Z,-59
2022-09-06T06:56:37.850Z,-58
2022-09-06T06:59:07.088Z,-59
2022-09-06T07:01:35.538Z,-57
2022-09-06T07:04:02.858Z,-58
2022-09-06T07:09:18.256Z,-57
2022-09-06T07:11:45.158Z,-58
2022-09-06T07:14:11.875Z,-57
2022-09-06T07:16:39.652Z,-57
2022-09-06T07:19:06.964Z,-58
2022-09-06T07:24:08.434Z,-58
2022-09-06T07:26:38.185Z,-58
2022-09-06T07:29:06.323Z,-58
2022-09-06T07:34:22.194Z,-58
2022-09-06T07:36:51.677Z,-58
2022-09-06T07:39:18.259Z,-58
2022-09-06T07:41:44.950Z,-58
2022-09-06T07:44:11.787Z,-57
2022-09-06T07:46:38.793Z,-57
2022-09-06T07:49:06.582Z,-58
2022-09-06T07:51:33.385Z,-58
2022-09-06T07:54:28.840Z,-57
2022-09-06T07:56:46.786Z,-57
2022-09-06T07:59:13.465Z,-57
2022-09-06T08:01:40.485Z,-58
2022-09-06T08:04:14.266Z,-58
2022-09-06T08:09:30.726Z,-57
2022-09-06T08:11:57.445Z,-57
2022-09-06T08:14:24.090Z,-58
2022-09-06T08:16:50.942Z,-58
2022-09-06T08:19:18.524Z,-58
2022-09-06T08:21:45.218Z,-58
2022-09-06T08:24:11.808Z,-58
2022-09-06T08:26:40.710Z,-58
2022-09-06T08:29:08.814Z,-58
2022-09-06T08:31:38.193Z,-58
2022-09-06T08:34:05.462Z,-58
2022-09-06T08:36:32.737Z,-58
2022-09-06T08:39:05.426Z,-58
2022-09-06T08:41:35.085Z,-58
2022-09-06T08:47:06.526Z,-58
2022-09-06T08:49:38.360Z,-58
2022-09-06T08:52:13.923Z,-58
2022-09-06T08:54:48.902Z,-58
2022-09-06T08:57:21.603Z,-58
2022-09-06T08:59:50.638Z,-59
2022-09-06T09:02:20.220Z,-58
2022-09-06T09:05:02.372Z,-58
2022-09-06T09:07:45.024Z,-58
2022-09-06T09:10:22.032Z,-58
2022-09-06T09:12:50.010Z,-58
2022-09-06T09:15:18.925Z,-58
2022-09-06T09:17:47.538Z,-58
2022-09-06T09:20:14.271Z,-58
2022-09-06T09:22:42.659Z,-58
2022-09-06T09:25:16.361Z,-58
2022-09-06T09:27:44.739Z,-59
2022-09-06T09:32:58.668Z,-58
2022-09-06T09:35:36.898Z,-58
2022-09-06T09:38:13.053Z,-58
2022-09-06T09:40:42.814Z,-58
2022-09-06T09:43:15.391Z,-57
2022-09-06T09:45:43.360Z,-57
2022-09-06T09:48:17.647Z,-58
2022-09-06T09:50:44.436Z,-58
2022-09-06T09:53:13.818Z,-58
2022-09-06T09:55:41.292Z,-58
2022-09-06T09:58:20.359Z,-58
2022-09-06T10:00:46.973Z,-58
2022-09-06T10:03:13.548Z,-58
2022-09-06T10:05:41.412Z,-58
2022-09-06T10:08:13.088Z,-58
2022-09-06T10:10:43.158Z,-58
2022-09-06T10:13:20.499Z,-58
2022-09-06T10:15:48.161Z,-58
2022-09-06T10:18:20.785Z,-58
2022-09-06T10:20:54.513Z,-58
2022-09-06T10:26:49.387Z,-58
2022-09-06T10:29:38.420Z,-58
2022-09-06T10:32:42.612Z,-58
2022-09-06T10:35:18.904Z,-58
2022-09-06T10:38:13.490Z,-57
2022-09-06T10:40:57.289Z,-58
2022-09-06T10:43:27.599Z,-59
2022-09-06T10:45:58.387Z,-58
2022-09-06T10:48:35.066Z,-58
2022-09-06T10:51:10.038Z,-59
2022-09-06T10:53:51.755Z,-58
2022-09-06T10:56:36.244Z,-58
2022-09-06T11:02:02.855Z,-58
2022-09-06T11:07:38.213Z,-58
2022-09-06T11:10:14.443Z,-58
2022-09-06T11:12:59.251Z,-58
2022-09-06T11:15:31.737Z,-58
2022-09-06T11:18:09.744Z,-58
2022-09-06T11:20:42.723Z,-58
2022-09-06T11:23:12.113Z,-58
2022-09-06T11:26:09.846Z,-58
2022-09-06T11:28:55.597Z,-58
2022-09-06T11:34:33.946Z,-58
2022-09-06T11:37:03.791Z,-59
2022-09-06T11:42:44.627Z,-58
2022-09-06T11:45:11.174Z,-57
2022-09-06T11:47:42.024Z,-57
2022-09-06T11:51:15.731Z,-57
2022-09-06T11:53:51.094Z,-58
2022-09-06T11:56:47.029Z,-58
2022-09-06T11:59:16.278Z,-58
2022-09-06T12:02:00.243Z,-58
2022-09-06T12:05:00.455Z,-57
2022-09-06T12:07:28.515Z,-57
2022-09-06T12:09:55.095Z,-57
2022-09-06T12:12:40.269Z,-57
2022-09-06T12:15:25.565Z,-60
2022-09-06T12:17:52.752Z,-57
2022-09-06T12:20:48.592Z,-65
2022-09-06T12:23:35.522Z,-64
2022-09-06T12:26:04.245Z,-64
2022-09-06T12:28:34.980Z,-65
2022-09-06T12:31:02.244Z,-64
2022-09-06T12:33:32.935Z,-63
2022-09-06T12:36:22.924Z,-65
2022-09-06T12:38:57.562Z,-64
2022-09-06T12:41:26.969Z,-65
2022-09-06T12:43:55.890Z,-65
2022-09-06T12:46:25.655Z,-65
2022-09-06T12:49:09.498Z,-65
2022-09-06T12:51:38.459Z,-63
2022-09-06T12:54:23.405Z,-64
2022-09-06T12:56:51.204Z,-64
2022-09-06T12:59:17.785Z,-64
2022-09-06T13:01:49.566Z,-64
2022-09-06T13:04:32.753Z,-65
2022-09-06T13:07:03.101Z,-66
2022-09-06T13:09:31.793Z,-64
2022-09-06T13:12:18.288Z,-66
2022-09-06T13:14:44.977Z,-66
2022-09-06T13:17:29.731Z,-68
2022-09-06T13:19:58.283Z,-63
2022-09-06T13:22:43.742Z,-66
2022-09-06T13:25:23.959Z,-66
2022-09-06T13:27:58.552Z,-66
2022-09-06T13:30:37.835Z,-64
2022-09-06T13:33:07.048Z,-66
2022-09-06T13:35:37.337Z,-67
2022-09-06T13:38:31.187Z,-67
2022-09-06T13:41:16.619Z,-65
2022-09-06T13:43:47.739Z,-67
2022-09-06T13:46:14.520Z,-65
2022-09-06T13:48:43.217Z,-65
2022-09-06T13:51:09.925Z,-67
2022-09-06T13:53:36.579Z,-64
2022-09-06T13:56:05.172Z,-66
2022-09-06T13:58:31.765Z,-66
2022-09-06T14:00:58.696Z,-66
2022-09-06T14:03:30.999Z,-65
2022-09-06T14:06:00.372Z,-66
2022-09-06T14:08:43.844Z,-65
2022-09-06T14:11:17.490Z,-66
2022-09-06T14:13:44.394Z,-65
2022-09-06T14:16:11.557Z,-68
2022-09-06T14:18:38.357Z,-65
2022-09-06T14:21:05.756Z,-67
2022-09-06T14:23:32.440Z,-64
2022-09-06T14:26:01.859Z,-66
2022-09-06T14:28:31.208Z,-64
2022-09-06T14:30:57.930Z,-67
2022-09-06T14:33:24.745Z,-63
2022-09-06T14:35:51.344Z,-65
2022-09-06T14:38:17.941Z,-65
2022-09-06T14:40:44.631Z,-65
2022-09-06T14:43:11.355Z,-66
2022-09-06T14:45:38.010Z,-64
2022-09-06T14:48:05.635Z,-65
2022-09-06T14:50:32.405Z,-65
2022-09-06T14:52:59.358Z,-63
2022-09-06T14:55:28.141Z,-65
2022-09-06T14:57:55.080Z,-64
2022-09-06T15:00:22.871Z,-65
2022-09-06T15:02:49.500Z,-65
2022-09-06T15:05:16.391Z,-62
2022-09-06T15:07:43.275Z,-63
2022-09-06T15:10:10.403Z,-65
2022-09-06T15:12:37.565Z,-65
2022-09-06T15:15:05.382Z,-64
2022-09-06T15:17:34.410Z,-64
2022-09-06T15:20:01.289Z,-65
2022-09-06T15:22:28.080Z,-64
2022-09-06T15:24:54.848Z,-64
2022-09-06T15:27:21.716Z,-65
2022-09-06T15:29:48.366Z,-66
2022-09-06T15:32:14.979Z,-64
2022-09-06T15:34:41.604Z,-66
2022-09-06T15:37:08.319Z,-64
2022-09-06T15:39:35.088Z,-63
2022-09-06T15:42:01.773Z,-64
2022-09-06T15:44:28.515Z,-65
2022-09-06T15:47:00.736Z,-64
2022-09-06T15:49:32.367Z,-66
2022-09-06T15:52:01.522Z,-63
2022-09-06T15:54:47.928Z,-66
2022-09-06T15:57:16.942Z,-64
2022-09-06T15:59:44.091Z,-65
2022-09-06T16:02:14.323Z,-66
2022-09-06T16:04:41.049Z,-65
2022-09-06T16:07:07.768Z,-67
2022-09-06T16:09:34.508Z,-66
2022-09-06T16:12:01.144Z,-66
2022-09-06T16:14:29.173Z,-67
2022-09-06T16:16:56.452Z,-66
2022-09-06T16:19:25.949Z,-66
2022-09-06T16:21:52.755Z,-69
2022-09-06T16:24:19.413Z,-66
2022-09-06T16:26:46.769Z,-66
2022-09-06T16:29:16.430Z,-66
2022-09-06T16:31:43.185Z,-67
2022-09-06T16:34:10.490Z,-67
2022-09-06T16:36:37.836Z,-66
2022-09-06T16:39:06.146Z,-64
2022-09-06T16:41:44.914Z,-66
2022-09-06T16:44:17.578Z,-64
2022-09-06T16:46:49.712Z,-66
2022-09-06T16:49:18.107Z,-65
2022-09-06T16:51:45.905Z,-66
2022-09-06T16:54:14.075Z,-65
2022-09-06T16:56:41.706Z,-66
2022-09-06T16:59:10.364Z,-66
2022-09-06T17:01:38.983Z,-66
2022-09-06T17:04:05.947Z,-64
2022-09-06T17:06:34.210Z,-64
2022-09-06T17:09:00.963Z,-66
2022-09-06T17:11:29.001Z,-65
2022-09-06T17:13:57.306Z,-64
2022-09-06T17:16:43.604Z,-66
2022-09-06T17:19:10.816Z,-66
2022-09-06T17:21:48.999Z,-67
2022-09-06T17:24:15.793Z,-65
2022-09-06T17:26:42.630Z,-64
2022-09-06T17:29:10.541Z,-65
2022-09-06T17:31:37.917Z,-66
2022-09-06T17:34:05.416Z,-67
2022-09-06T17:36:33.506Z,-65
2022-09-06T17:39:08.947Z,-67
2022-09-06T17:41:39.007Z,-64
2022-09-06T17:44:07.655Z,-64
2022-09-06T17:46:34.281Z,-64
2022-09-06T17:49:01.006Z,-65
2022-09-06T17:51:28.081Z,-64
2022-09-06T17:53:54.857Z,-65
2022-09-06T17:56:22.030Z,-65
2022-09-06T17:59:09.941Z,-65
2022-09-06T18:01:38.964Z,-65
2022-09-06T18:04:06.455Z,-66
2022-09-06T18:06:34.548Z,-65
2022-09-06T18:09:10.075Z,-66
2022-09-06T18:11:39.844Z,-66
2022-09-06T18:14:12.502Z,-65
2022-09-06T18:16:40.534Z,-66
2022-09-06T18:19:08.458Z,-65
2022-09-06T18:21:38.113Z,-56
2022-09-06T18:24:05.493Z,-56
2022-09-06T18:26:32.401Z,-57
2022-09-06T18:28:59.023Z,-56
2022-09-06T18:31:27.296Z,-57
2022-09-06T18:33:58.091Z,-57
2022-09-06T18:36:28.700Z,-58
2022-09-06T18:39:02.519Z,-58
2022-09-06T18:41:47.534Z,-56
2022-09-06T18:44:14.658Z,-56
2022-09-06T18:46:41.258Z,-57
2022-09-06T18:49:08.142Z,-56
2022-09-06T18:51:35.080Z,-57
2022-09-06T18:54:02.343Z,-57
2022-09-06T18:56:29.000Z,-57
2022-09-06T18:59:00.706Z,-59
2022-09-06T19:01:29.545Z,-56
2022-09-06T19:03:57.744Z,-58
2022-09-06T19:06:24.424Z,-57
2022-09-06T19:08:53.825Z,-57
2022-09-06T19:11:21.915Z,-58
2022-09-06T19:13:52.769Z,-59
2022-09-06T19:16:20.644Z,-56
2022-09-06T19:18:47.283Z,-57
2022-09-06T19:21:17.533Z,-58
2022-09-06T19:23:47.106Z,-56
2022-09-06T19:26:22.416Z,-56
2022-09-06T19:28:57.753Z,-56
2022-09-06T19:31:27.609Z,-56
2022-09-06T19:33:55.201Z,-59
2022-09-06T19:36:23.392Z,-56
2022-09-06T19:39:04.015Z,-59
2022-09-06T19:41:34.038Z,-55
2022-09-06T19:44:01.724Z,-56
2022-09-06T19:46:28.360Z,-56
2022-09-06T19:48:58.410Z,-56
2022-09-06T19:51:25.385Z,-57
2022-09-06T19:53:54.391Z,-56
2022-09-06T19:56:33.542Z,-58
2022-09-06T19:59:06.284Z,-56
2022-09-06T20:01:34.510Z,-56
2022-09-06T20:04:02.916Z,-56
2022-09-06T20:06:30.606Z,-57
2022-09-06T20:08:58.723Z,-56
2022-09-06T20:11:28.280Z,-57
2022-09-06T20:13:55.330Z,-56
2022-09-06T20:16:24.860Z,-56
2022-09-06T20:18:52.523Z,-56
2022-09-06T20:21:19.227Z,-56
2022-09-06T20:23:50.673Z,-55
2022-09-06T20:26:18.445Z,-56
2022-09-06T20:28:45.580Z,-58
2022-09-06T20:31:16.434Z,-57
2022-09-06T20:33:48.484Z,-56
2022-09-06T20:36:17.112Z,-56
2022-09-06T20:38:45.120Z,-58
2022-09-06T20:41:15.061Z,-57
2022-09-06T20:43:42.631Z,-56
2022-09-06T20:46:14.150Z,-57
2022-09-06T20:48:44.654Z,-57
2022-09-06T20:51:18.841Z,-57
2022-09-06T20:53:48.127Z,-56
2022-09-06T20:56:17.225Z,-58
2022-09-06T20:58:49.360Z,-57
2022-09-06T21:01:22.888Z,-57
2022-09-06T21:03:52.309Z,-57
2022-09-06T21:06:20.474Z,-56
2022-09-06T21:08:48.001Z,-56
2022-09-06T21:11:15.081Z,-57
2022-09-06T21:13:41.817Z,-59
2022-09-06T21:16:09.104Z,-56
2022-09-06T21:18:36.231Z,-56
2022-09-06T21:21:06.055Z,-57
2022-09-06T21:23:38.202Z,-57
2022-09-06T21:26:10.230Z,-56
2022-09-06T21:28:38.983Z,-57
2022-09-06T21:31:18.107Z,-56
2022-09-06T21:33:47.602Z,-56
2022-09-06T21:36:16.731Z,-56
2022-09-06T21:38:48.727Z,-57
2022-09-06T21:41:18.330Z,-58
2022-09-06T21:43:45.566Z,-55
2022-09-06T21:46:18.347Z,-56
2022-09-06T21:48:47.453Z,-57
2022-09-06T21:51:16.591Z,-58
2022-09-06T21:53:46.150Z,-57
2022-09-06T21:56:13.403Z,-57
2022-09-06T21:58:40.412Z,-56
2022-09-06T22:01:07.820Z,-57
2022-09-06T22:03:42.530Z,-56
2022-09-06T22:06:13.460Z,-57
2022-09-06T22:08:43.268Z,-56
2022-09-06T22:11:09.971Z,-57
2022-09-06T22:13:36.739Z,-57
2022-09-06T22:16:07.814Z,-58
2022-09-06T22:18:34.842Z,-57
2022-09-06T22:21:27.769Z,-56
2022-09-06T22:23:59.526Z,-59
2022-09-06T22:26:28.588Z,-57
2022-09-06T22:29:05.130Z,-56
2022-09-06T22:31:33.487Z,-57
2022-09-06T22:34:00.490Z,-57
2022-09-06T22:36:27.955Z,-57
2022-09-06T22:38:58.648Z,-58
2022-09-06T22:41:27.236Z,-57
2022-09-06T22:43:54.211Z,-56
2022-09-06T22:46:21.238Z,-57
2022-09-06T22:48:49.408Z,-57
2022-09-06T22:51:16.279Z,-56
2022-09-06T22:53:42.911Z,-56
2022-09-06T22:56:09.553Z,-55
2022-09-06T22:58:36.257Z,-58
2022-09-06T23:01:12.074Z,-56
2022-09-06T23:03:39.301Z,-57
2022-09-06T23:06:06.053Z,-57
2022-09-06T23:08:34.687Z,-59
2022-09-06T23:11:07.138Z,-57
2022-09-06T23:13:34.715Z,-58
2022-09-06T23:16:06.635Z,-57
2022-09-06T23:18:33.831Z,-57
2022-09-06T23:21:20.870Z,-58
2022-09-06T23:23:49.413Z,-58
2022-09-06T23:26:19.324Z,-56
2022-09-06T23:28:46.196Z,-56
2022-09-06T23:31:15.150Z,-56
2022-09-06T23:33:42.084Z,-58
2022-09-06T23:36:11.348Z,-56
2022-09-06T23:38:39.652Z,-56
2022-09-06T23:41:08.462Z,-55
2022-09-06T23:43:35.110Z,-55
2022-09-06T23:46:01.763Z,-56
2022-09-06T23:48:28.870Z,-56
2022-09-06T23:50:55.644Z,-56
2022-09-06T23:53:22.226Z,-55
2022-09-06T23:55:48.815Z,-56
2022-09-06T23:58:15.703Z,-58
